sensor_id;sensor_type;location;lat;lon;timestamp;temperature;humidity
38428;DHT22;24211;49.980;19.776;2023-06-22T00:00:17;25.40;94.10
38428;DHT22;24211;49.980;19.776;2023-06-22T00:03:05;25.30;94.30
38428;DHT22;24211;49.980;19.776;2023-06-22T00:05:32;25.30;94.40
38428;DHT22;24211;49.980;19.776;2023-06-22T00:08:03;25.20;94.70
38428;DHT22;24211;49.980;19.776;2023-06-22T00:10:32;25.20;94.40
38428;DHT22;24211;49.980;19.776;2023-06-22T00:12:59;25.20;94.40
38428;DHT22;24211;49.980;19.776;2023-06-22T00:15:27;25.10;94.50
38428;DHT22;24211;49.980;19.776;2023-06-22T00:17:54;25.10;94.60
38428;DHT22;24211;49.980;19.776;2023-06-22T00:20:21;25.10;94.70
38428;DHT22;24211;49.980;19.776;2023-06-22T00:22:49;25.00;94.70
38428;DHT22;24211;49.980;19.776;2023-06-22T00:25:16;25.00;94.80
38428;DHT22;24211;49.980;19.776;2023-06-22T00:27:43;25.00;94.90
38428;DHT22;24211;49.980;19.776;2023-06-22T00:30:11;24.90;94.90
38428;DHT22;24211;49.980;19.776;2023-06-22T00:32:38;24.90;95.00
38428;DHT22;24211;49.980;19.776;2023-06-22T00:35:07;24.80;95.10
38428;DHT22;24211;49.980;19.776;2023-06-22T00:37:36;24.80;95.10
38428;DHT22;24211;49.980;19.776;2023-06-22T00:40:04;24.80;95.40
38428;DHT22;24211;49.980;19.776;2023-06-22T00:42:32;24.70;96.20
38428;DHT22;24211;49.980;19.776;2023-06-22T00:44:59;24.60;96.90
38428;DHT22;24211;49.980;19.776;2023-06-22T00:47:27;24.50;97.30
38428;DHT22;24211;49.980;19.776;2023-06-22T00:49:55;24.40;98.00
38428;DHT22;24211;49.980;19.776;2023-06-22T00:52:22;24.40;97.80
38428;DHT22;24211;49.980;19.776;2023-06-22T00:54:56;24.30;97.60
38428;DHT22;24211;49.980;19.776;2023-06-22T00:57:26;24.30;97.50
38428;DHT22;24211;49.980;19.776;2023-06-22T00:59:55;24.30;97.50
38428;DHT22;24211;49.980;19.776;2023-06-22T01:02:22;24.30;97.40
38428;DHT22;24211;49.980;19.776;2023-06-22T01:04:51;24.30;97.40
38428;DHT22;24211;49.980;19.776;2023-06-22T01:07:36;24.30;97.50
38428;DHT22;24211;49.980;19.776;2023-06-22T01:10:16;24.30;97.50
38428;DHT22;24211;49.980;19.776;2023-06-22T01:13:04;24.20;97.50
38428;DHT22;24211;49.980;19.776;2023-06-22T01:15:49;24.20;97.60
38428;DHT22;24211;49.980;19.776;2023-06-22T01:18:21;24.20;97.70
38428;DHT22;24211;49.980;19.776;2023-06-22T01:20:54;24.10;97.70
38428;DHT22;24211;49.980;19.776;2023-06-22T01:23:53;24.10;97.70
38428;DHT22;24211;49.980;19.776;2023-06-22T01:26:54;24.00;97.70
38428;DHT22;24211;49.980;19.776;2023-06-22T01:29:33;24.00;97.80
38428;DHT22;24211;49.980;19.776;2023-06-22T01:32:04;24.00;97.90
38428;DHT22;24211;49.980;19.776;2023-06-22T01:34:36;24.00;97.90
38428;DHT22;24211;49.980;19.776;2023-06-22T01:37:07;23.90;98.00
38428;DHT22;24211;49.980;19.776;2023-06-22T01:39:35;23.90;98.10
38428;DHT22;24211;49.980;19.776;2023-06-22T01:42:03;23.90;98.10
38428;DHT22;24211;49.980;19.776;2023-06-22T01:44:33;23.90;98.20
38428;DHT22;24211;49.980;19.776;2023-06-22T01:47:03;23.80;98.20
38428;DHT22;24211;49.980;19.776;2023-06-22T01:49:31;23.80;98.30
38428;DHT22;24211;49.980;19.776;2023-06-22T01:51:59;23.80;98.40
38428;DHT22;24211;49.980;19.776;2023-06-22T01:54:28;23.70;98.40
38428;DHT22;24211;49.980;19.776;2023-06-22T01:56:56;23.70;98.60
38428;DHT22;24211;49.980;19.776;2023-06-22T01:59:34;23.70;98.60
38428;DHT22;24211;49.980;19.776;2023-06-22T02:02:17;23.70;98.60
38428;DHT22;24211;49.980;19.776;2023-06-22T02:04:53;23.60;98.60
38428;DHT22;24211;49.980;19.776;2023-06-22T02:07:29;23.60;98.60
38428;DHT22;24211;49.980;19.776;2023-06-22T02:10:03;23.60;98.70
38428;DHT22;24211;49.980;19.776;2023-06-22T02:12:35;23.60;98.70
38428;DHT22;24211;49.980;19.776;2023-06-22T02:15:04;23.50;98.80
38428;DHT22;24211;49.980;19.776;2023-06-22T02:17:33;23.50;98.80
38428;DHT22;24211;49.980;19.776;2023-06-22T02:20:03;23.50;99.20
38428;DHT22;24211;49.980;19.776;2023-06-22T02:22:35;23.40;99.00
38428;DHT22;24211;49.980;19.776;2023-06-22T02:25:02;23.40;99.10
38428;DHT22;24211;49.980;19.776;2023-06-22T02:27:30;23.30;99.30
38428;DHT22;24211;49.980;19.776;2023-06-22T02:29:57;23.20;99.40
38428;DHT22;24211;49.980;19.776;2023-06-22T02:32:25;23.20;99.60
38428;DHT22;24211;49.980;19.776;2023-06-22T02:34:52;23.20;99.80
38428;DHT22;24211;49.980;19.776;2023-06-22T02:37:20;23.20;99.80
38428;DHT22;24211;49.980;19.776;2023-06-22T02:39:47;23.20;99.90
38428;DHT22;24211;49.980;19.776;2023-06-22T02:42:14;23.10;99.90
38428;DHT22;24211;49.980;19.776;2023-06-22T02:44:42;23.10;99.90
38428;DHT22;24211;49.980;19.776;2023-06-22T02:47:09;23.10;99.90
38428;DHT22;24211;49.980;19.776;2023-06-22T02:49:37;23.10;99.90
38428;DHT22;24211;49.980;19.776;2023-06-22T02:52:04;23.10;99.90
38428;DHT22;24211;49.980;19.776;2023-06-22T02:54:31;23.00;99.90
38428;DHT22;24211;49.980;19.776;2023-06-22T02:57:00;23.00;99.90
38428;DHT22;24211;49.980;19.776;2023-06-22T02:59:30;23.00;99.90
38428;DHT22;24211;49.980;19.776;2023-06-22T03:02:06;22.90;99.90
38428;DHT22;24211;49.980;19.776;2023-06-22T03:04:34;22.90;99.90
38428;DHT22;24211;49.980;19.776;2023-06-22T03:07:02;22.90;99.90
38428;DHT22;24211;49.980;19.776;2023-06-22T03:09:32;22.90;99.90
38428;DHT22;24211;49.980;19.776;2023-06-22T03:11:59;22.90;99.90
38428;DHT22;24211;49.980;19.776;2023-06-22T03:14:34;22.90;99.90
38428;DHT22;24211;49.980;19.776;2023-06-22T03:17:04;22.90;99.90
38428;DHT22;24211;49.980;19.776;2023-06-22T03:19:33;22.80;99.90
38428;DHT22;24211;49.980;19.776;2023-06-22T03:22:00;22.80;99.90
38428;DHT22;24211;49.980;19.776;2023-06-22T03:24:28;22.80;99.90
38428;DHT22;24211;49.980;19.776;2023-06-22T03:26:56;22.80;99.90
38428;DHT22;24211;49.980;19.776;2023-06-22T03:29:24;22.80;99.90
38428;DHT22;24211;49.980;19.776;2023-06-22T03:31:55;22.80;99.90
38428;DHT22;24211;49.980;19.776;2023-06-22T03:34:22;22.80;99.90
38428;DHT22;24211;49.980;19.776;2023-06-22T03:36:52;22.80;99.90
38428;DHT22;24211;49.980;19.776;2023-06-22T03:39:19;22.70;99.90
38428;DHT22;24211;49.980;19.776;2023-06-22T03:41:47;22.70;99.90
38428;DHT22;24211;49.980;19.776;2023-06-22T03:44:14;22.70;99.90
38428;DHT22;24211;49.980;19.776;2023-06-22T03:46:42;22.70;99.90
38428;DHT22;24211;49.980;19.776;2023-06-22T03:49:11;22.70;99.90
38428;DHT22;24211;49.980;19.776;2023-06-22T03:51:38;22.70;99.90
38428;DHT22;24211;49.980;19.776;2023-06-22T03:54:05;22.70;99.90
38428;DHT22;24211;49.980;19.776;2023-06-22T03:56:33;22.60;99.90
38428;DHT22;24211;49.980;19.776;2023-06-22T03:59:00;22.60;99.90
38428;DHT22;24211;49.980;19.776;2023-06-22T04:01:27;22.70;99.90
38428;DHT22;24211;49.980;19.776;2023-06-22T04:03:54;22.60;99.90
38428;DHT22;24211;49.980;19.776;2023-06-22T04:06:22;22.70;99.90
38428;DHT22;24211;49.980;19.776;2023-06-22T04:08:49;22.70;99.90
38428;DHT22;24211;49.980;19.776;2023-06-22T04:11:18;22.70;99.90
38428;DHT22;24211;49.980;19.776;2023-06-22T04:13:45;22.70;99.90
38428;DHT22;24211;49.980;19.776;2023-06-22T04:16:12;22.80;99.90
38428;DHT22;24211;49.980;19.776;2023-06-22T04:18:39;22.80;99.90
38428;DHT22;24211;49.980;19.776;2023-06-22T04:21:07;22.90;99.90
38428;DHT22;24211;49.980;19.776;2023-06-22T04:23:34;23.00;99.90
38428;DHT22;24211;49.980;19.776;2023-06-22T04:26:01;23.00;99.90
38428;DHT22;24211;49.980;19.776;2023-06-22T04:28:28;23.10;99.90
38428;DHT22;24211;49.980;19.776;2023-06-22T04:30:56;23.20;99.90
38428;DHT22;24211;49.980;19.776;2023-06-22T04:33:25;23.30;99.90
38428;DHT22;24211;49.980;19.776;2023-06-22T04:35:52;23.50;99.90
38428;DHT22;24211;49.980;19.776;2023-06-22T04:38:19;23.60;99.90
38428;DHT22;24211;49.980;19.776;2023-06-22T04:40:49;23.60;99.90
38428;DHT22;24211;49.980;19.776;2023-06-22T04:43:16;23.70;99.90
38428;DHT22;24211;49.980;19.776;2023-06-22T04:45:44;23.80;99.90
38428;DHT22;24211;49.980;19.776;2023-06-22T04:48:11;24.00;99.90
38428;DHT22;24211;49.980;19.776;2023-06-22T04:50:43;24.10;99.90
38428;DHT22;24211;49.980;19.776;2023-06-22T04:53:11;24.30;99.90
38428;DHT22;24211;49.980;19.776;2023-06-22T04:55:39;24.40;99.90
38428;DHT22;24211;49.980;19.776;2023-06-22T04:58:08;24.50;99.90
38428;DHT22;24211;49.980;19.776;2023-06-22T05:00:35;24.70;99.90
38428;DHT22;24211;49.980;19.776;2023-06-22T05:03:05;24.80;99.90
38428;DHT22;24211;49.980;19.776;2023-06-22T05:05:46;25.00;99.90
38428;DHT22;24211;49.980;19.776;2023-06-22T05:08:13;25.20;99.90
38428;DHT22;24211;49.980;19.776;2023-06-22T05:10:40;25.20;99.90
38428;DHT22;24211;49.980;19.776;2023-06-22T05:13:28;25.30;99.90
38428;DHT22;24211;49.980;19.776;2023-06-22T05:15:55;25.40;99.90
38428;DHT22;24211;49.980;19.776;2023-06-22T05:18:30;25.50;99.90
38428;DHT22;24211;49.980;19.776;2023-06-22T05:21:00;25.70;99.90
38428;DHT22;24211;49.980;19.776;2023-06-22T05:23:28;25.80;99.90
38428;DHT22;24211;49.980;19.776;2023-06-22T05:25:55;25.90;99.90
38428;DHT22;24211;49.980;19.776;2023-06-22T05:28:25;26.20;99.90
38428;DHT22;24211;49.980;19.776;2023-06-22T05:30:52;26.30;99.90
38428;DHT22;24211;49.980;19.776;2023-06-22T05:33:20;26.50;99.90
38428;DHT22;24211;49.980;19.776;2023-06-22T05:35:47;26.70;99.90
38428;DHT22;24211;49.980;19.776;2023-06-22T05:38:14;26.90;99.90
38428;DHT22;24211;49.980;19.776;2023-06-22T05:40:41;27.20;99.90
38428;DHT22;24211;49.980;19.776;2023-06-22T05:43:08;27.40;99.90
38428;DHT22;24211;49.980;19.776;2023-06-22T05:45:36;27.50;99.90
38428;DHT22;24211;49.980;19.776;2023-06-22T05:48:03;27.50;99.90
38428;DHT22;24211;49.980;19.776;2023-06-22T05:50:32;27.50;99.90
38428;DHT22;24211;49.980;19.776;2023-06-22T05:52:59;27.50;99.90
38428;DHT22;24211;49.980;19.776;2023-06-22T05:55:27;27.40;99.90
38428;DHT22;24211;49.980;19.776;2023-06-22T05:57:54;27.50;99.90
38428;DHT22;24211;49.980;19.776;2023-06-22T06:00:21;27.70;99.90
38428;DHT22;24211;49.980;19.776;2023-06-22T06:02:49;27.80;99.90
38428;DHT22;24211;49.980;19.776;2023-06-22T06:05:16;28.00;99.90
38428;DHT22;24211;49.980;19.776;2023-06-22T06:07:45;27.90;99.90
38428;DHT22;24211;49.980;19.776;2023-06-22T06:10:13;27.70;99.90
38428;DHT22;24211;49.980;19.776;2023-06-22T06:12:40;27.70;99.90
38428;DHT22;24211;49.980;19.776;2023-06-22T06:15:08;27.80;99.90
38428;DHT22;24211;49.980;19.776;2023-06-22T06:17:45;27.90;99.90
38428;DHT22;24211;49.980;19.776;2023-06-22T06:20:19;28.40;99.90
38428;DHT22;24211;49.980;19.776;2023-06-22T06:22:48;28.70;99.90
38428;DHT22;24211;49.980;19.776;2023-06-22T06:25:17;28.80;99.90
38428;DHT22;24211;49.980;19.776;2023-06-22T06:27:47;28.90;99.90
38428;DHT22;24211;49.980;19.776;2023-06-22T06:30:16;29.20;99.90
38428;DHT22;24211;49.980;19.776;2023-06-22T06:32:45;29.20;99.90
38428;DHT22;24211;49.980;19.776;2023-06-22T06:35:14;29.40;99.90
38428;DHT22;24211;49.980;19.776;2023-06-22T06:37:47;29.70;99.90
38428;DHT22;24211;49.980;19.776;2023-06-22T06:40:17;30.00;99.80
38428;DHT22;24211;49.980;19.776;2023-06-22T06:42:48;29.90;99.80
38428;DHT22;24211;49.980;19.776;2023-06-22T06:45:23;29.90;99.90
38428;DHT22;24211;49.980;19.776;2023-06-22T06:47:51;29.70;99.90
38428;DHT22;24211;49.980;19.776;2023-06-22T06:50:20;30.00;99.60
38428;DHT22;24211;49.980;19.776;2023-06-22T06:52:47;30.40;99.30
38428;DHT22;24211;49.980;19.776;2023-06-22T06:55:17;30.50;99.10
38428;DHT22;24211;49.980;19.776;2023-06-22T06:57:44;30.70;98.60
38428;DHT22;24211;49.980;19.776;2023-06-22T07:00:16;31.00;98.40
38428;DHT22;24211;49.980;19.776;2023-06-22T07:02:44;31.10;98.20
38428;DHT22;24211;49.980;19.776;2023-06-22T07:05:13;31.00;98.10
38428;DHT22;24211;49.980;19.776;2023-06-22T07:07:40;31.20;98.10
38428;DHT22;24211;49.980;19.776;2023-06-22T07:10:09;31.50;97.70
38428;DHT22;24211;49.980;19.776;2023-06-22T07:12:36;31.90;97.20
38428;DHT22;24211;49.980;19.776;2023-06-22T07:15:08;32.20;97.00
38428;DHT22;24211;49.980;19.776;2023-06-22T07:17:37;32.50;96.50
38428;DHT22;24211;49.980;19.776;2023-06-22T07:20:05;32.90;96.20
38428;DHT22;24211;49.980;19.776;2023-06-22T07:22:36;33.00;95.90
38428;DHT22;24211;49.980;19.776;2023-06-22T07:25:04;32.80;96.00
38428;DHT22;24211;49.980;19.776;2023-06-22T07:27:42;32.60;95.90
38428;DHT22;24211;49.980;19.776;2023-06-22T07:30:12;32.80;95.90
38428;DHT22;24211;49.980;19.776;2023-06-22T07:32:40;32.90;95.80
38428;DHT22;24211;49.980;19.776;2023-06-22T07:35:08;33.00;95.60
38428;DHT22;24211;49.980;19.776;2023-06-22T07:37:35;33.30;95.50
38428;DHT22;24211;49.980;19.776;2023-06-22T07:40:03;33.60;95.10
38428;DHT22;24211;49.980;19.776;2023-06-22T07:42:33;33.90;94.90
38428;DHT22;24211;49.980;19.776;2023-06-22T07:45:02;33.90;94.60
38428;DHT22;24211;49.980;19.776;2023-06-22T07:47:31;34.00;94.60
38428;DHT22;24211;49.980;19.776;2023-06-22T07:50:03;34.30;94.40
38428;DHT22;24211;49.980;19.776;2023-06-22T07:52:31;34.60;94.20
38428;DHT22;24211;49.980;19.776;2023-06-22T07:54:59;34.70;93.90
38428;DHT22;24211;49.980;19.776;2023-06-22T07:57:30;34.90;93.80
38428;DHT22;24211;49.980;19.776;2023-06-22T08:00:03;35.00;93.80
38428;DHT22;24211;49.980;19.776;2023-06-22T08:02:42;35.20;93.70
38428;DHT22;24211;49.980;19.776;2023-06-22T08:05:12;35.50;93.60
38428;DHT22;24211;49.980;19.776;2023-06-22T08:07:49;35.70;93.30
38428;DHT22;24211;49.980;19.776;2023-06-22T08:10:17;35.90;93.00
38428;DHT22;24211;49.980;19.776;2023-06-22T08:12:44;36.30;92.90
38428;DHT22;24211;49.980;19.776;2023-06-22T08:15:11;36.70;92.60
38428;DHT22;24211;49.980;19.776;2023-06-22T08:17:39;36.90;92.30
38428;DHT22;24211;49.980;19.776;2023-06-22T08:20:07;37.00;92.10
38428;DHT22;24211;49.980;19.776;2023-06-22T08:22:43;36.80;92.10
38428;DHT22;24211;49.980;19.776;2023-06-22T08:25:11;36.90;92.00
38428;DHT22;24211;49.980;19.776;2023-06-22T08:27:39;36.80;91.90
38428;DHT22;24211;49.980;19.776;2023-06-22T08:30:08;36.60;92.00
38428;DHT22;24211;49.980;19.776;2023-06-22T08:32:37;36.50;92.20
38428;DHT22;24211;49.980;19.776;2023-06-22T08:35:05;36.40;92.10
38428;DHT22;24211;49.980;19.776;2023-06-22T08:37:35;36.30;92.20
38428;DHT22;24211;49.980;19.776;2023-06-22T08:40:06;36.30;92.10
38428;DHT22;24211;49.980;19.776;2023-06-22T08:42:36;36.20;92.10
38428;DHT22;24211;49.980;19.776;2023-06-22T08:45:08;36.10;92.00
38428;DHT22;24211;49.980;19.776;2023-06-22T08:47:36;36.00;91.90
38428;DHT22;24211;49.980;19.776;2023-06-22T08:50:04;35.90;91.90
38428;DHT22;24211;49.980;19.776;2023-06-22T08:52:32;35.90;92.10
38428;DHT22;24211;49.980;19.776;2023-06-22T08:55:00;36.00;92.10
38428;DHT22;24211;49.980;19.776;2023-06-22T08:57:29;36.10;92.00
38428;DHT22;24211;49.980;19.776;2023-06-22T08:59:57;36.20;91.80
38428;DHT22;24211;49.980;19.776;2023-06-22T09:02:27;36.30;91.60
38428;DHT22;24211;49.980;19.776;2023-06-22T09:04:59;36.40;91.20
38428;DHT22;24211;49.980;19.776;2023-06-22T09:07:27;36.60;91.20
38428;DHT22;24211;49.980;19.776;2023-06-22T09:09:55;36.80;91.00
38428;DHT22;24211;49.980;19.776;2023-06-22T09:12:23;37.20;90.80
38428;DHT22;24211;49.980;19.776;2023-06-22T09:14:54;37.50;90.60
38428;DHT22;24211;49.980;19.776;2023-06-22T09:17:22;37.70;90.40
38428;DHT22;24211;49.980;19.776;2023-06-22T09:19:50;37.90;90.20
38428;DHT22;24211;49.980;19.776;2023-06-22T09:22:17;38.10;89.80
38428;DHT22;24211;49.980;19.776;2023-06-22T09:24:45;38.20;89.30
38428;DHT22;24211;49.980;19.776;2023-06-22T09:27:12;38.20;90.00
38428;DHT22;24211;49.980;19.776;2023-06-22T09:29:39;38.20;89.00
38428;DHT22;24211;49.980;19.776;2023-06-22T09:32:06;38.40;88.70
38428;DHT22;24211;49.980;19.776;2023-06-22T09:34:34;38.50;88.30
38428;DHT22;24211;49.980;19.776;2023-06-22T09:37:01;38.60;87.70
38428;DHT22;24211;49.980;19.776;2023-06-22T09:39:29;38.60;88.50
38428;DHT22;24211;49.980;19.776;2023-06-22T09:41:59;38.70;88.70
38428;DHT22;24211;49.980;19.776;2023-06-22T09:44:27;38.80;88.30
38428;DHT22;24211;49.980;19.776;2023-06-22T09:46:54;39.00;87.30
38428;DHT22;24211;49.980;19.776;2023-06-22T09:53:05;39.10;85.90
38428;DHT22;24211;49.980;19.776;2023-06-22T09:55:32;39.10;86.90
38428;DHT22;24211;49.980;19.776;2023-06-22T09:57:59;39.30;86.40
38428;DHT22;24211;49.980;19.776;2023-06-22T10:00:26;39.40;86.50
38428;DHT22;24211;49.980;19.776;2023-06-22T10:02:54;39.40;86.40
38428;DHT22;24211;49.980;19.776;2023-06-22T10:05:27;39.60;84.50
38428;DHT22;24211;49.980;19.776;2023-06-22T10:07:55;39.90;84.40
38428;DHT22;24211;49.980;19.776;2023-06-22T10:10:22;39.80;84.30
38428;DHT22;24211;49.980;19.776;2023-06-22T10:12:55;39.90;84.40
38428;DHT22;24211;49.980;19.776;2023-06-22T10:15:24;40.00;84.80
38428;DHT22;24211;49.980;19.776;2023-06-22T10:17:54;40.00;84.70
38428;DHT22;24211;49.980;19.776;2023-06-22T10:20:21;40.10;84.90
38428;DHT22;24211;49.980;19.776;2023-06-22T10:22:49;40.30;84.00
38428;DHT22;24211;49.980;19.776;2023-06-22T10:25:18;40.40;84.20
38428;DHT22;24211;49.980;19.776;2023-06-22T10:32:38;40.50;83.30
38428;DHT22;24211;49.980;19.776;2023-06-22T10:35:06;40.20;84.10
38428;DHT22;24211;49.980;19.776;2023-06-22T10:37:34;40.00;84.40
38428;DHT22;24211;49.980;19.776;2023-06-22T10:40:03;39.90;83.90
38428;DHT22;24211;49.980;19.776;2023-06-22T10:42:31;39.80;83.70
38428;DHT22;24211;49.980;19.776;2023-06-22T10:44:58;39.80;83.70
38428;DHT22;24211;49.980;19.776;2023-06-22T10:47:25;39.70;84.30
38428;DHT22;24211;49.980;19.776;2023-06-22T10:49:58;39.50;84.30
38428;DHT22;24211;49.980;19.776;2023-06-22T10:52:25;39.50;84.00
38428;DHT22;24211;49.980;19.776;2023-06-22T10:54:52;39.60;83.70
38428;DHT22;24211;49.980;19.776;2023-06-22T10:57:21;39.60;83.80
38428;DHT22;24211;49.980;19.776;2023-06-22T10:59:49;39.80;83.90
38428;DHT22;24211;49.980;19.776;2023-06-22T11:02:16;40.00;83.60
38428;DHT22;24211;49.980;19.776;2023-06-22T11:04:43;40.20;83.30
38428;DHT22;24211;49.980;19.776;2023-06-22T11:07:11;40.50;82.60
38428;DHT22;24211;49.980;19.776;2023-06-22T11:09:38;41.10;81.40
38428;DHT22;24211;49.980;19.776;2023-06-22T11:15:50;41.00;82.50
38428;DHT22;24211;49.980;19.776;2023-06-22T11:18:17;41.10;82.30
38428;DHT22;24211;49.980;19.776;2023-06-22T11:20:45;41.00;82.30
38428;DHT22;24211;49.980;19.776;2023-06-22T11:23:20;40.90;81.90
38428;DHT22;24211;49.980;19.776;2023-06-22T11:25:48;40.70;81.40
38428;DHT22;24211;49.980;19.776;2023-06-22T11:28:15;40.80;82.10
38428;DHT22;24211;49.980;19.776;2023-06-22T11:30:42;40.90;81.70
38428;DHT22;24211;49.980;19.776;2023-06-22T11:33:09;41.00;80.60
38428;DHT22;24211;49.980;19.776;2023-06-22T11:35:37;41.40;79.90
38428;DHT22;24211;49.980;19.776;2023-06-22T11:38:04;41.90;78.80
38428;DHT22;24211;49.980;19.776;2023-06-22T11:40:32;42.40;77.50
38428;DHT22;24211;49.980;19.776;2023-06-22T11:42:59;42.60;76.50
38428;DHT22;24211;49.980;19.776;2023-06-22T11:45:27;42.60;76.90
38428;DHT22;24211;49.980;19.776;2023-06-22T11:47:54;42.80;76.10
38428;DHT22;24211;49.980;19.776;2023-06-22T11:50:21;42.80;76.60
38428;DHT22;24211;49.980;19.776;2023-06-22T11:52:48;42.40;77.30
38428;DHT22;24211;49.980;19.776;2023-06-22T11:55:16;42.20;77.50
38428;DHT22;24211;49.980;19.776;2023-06-22T11:57:56;42.20;77.70
38428;DHT22;24211;49.980;19.776;2023-06-22T12:00:28;42.30;78.00
38428;DHT22;24211;49.980;19.776;2023-06-22T12:02:56;42.30;77.60
38428;DHT22;24211;49.980;19.776;2023-06-22T12:05:27;42.30;77.50
38428;DHT22;24211;49.980;19.776;2023-06-22T12:07:54;42.30;77.70
38428;DHT22;24211;49.980;19.776;2023-06-22T12:13:47;42.70;76.80
38428;DHT22;24211;49.980;19.776;2023-06-22T12:16:15;42.90;76.60
38428;DHT22;24211;49.980;19.776;2023-06-22T12:18:42;43.00;77.10
38428;DHT22;24211;49.980;19.776;2023-06-22T12:21:10;42.90;77.20
38428;DHT22;24211;49.980;19.776;2023-06-22T12:23:37;42.90;77.40
38428;DHT22;24211;49.980;19.776;2023-06-22T12:26:04;42.80;77.60
38428;DHT22;24211;49.980;19.776;2023-06-22T12:28:31;42.80;77.60
38428;DHT22;24211;49.980;19.776;2023-06-22T12:30:58;43.00;76.80
38428;DHT22;24211;49.980;19.776;2023-06-22T12:33:26;42.80;77.00
38428;DHT22;24211;49.980;19.776;2023-06-22T12:35:53;42.70;76.90
38428;DHT22;24211;49.980;19.776;2023-06-22T12:38:20;42.60;77.00
38428;DHT22;24211;49.980;19.776;2023-06-22T12:40:54;42.70;77.00
38428;DHT22;24211;49.980;19.776;2023-06-22T12:44:31;42.70;76.80
38428;DHT22;24211;49.980;19.776;2023-06-22T12:46:58;43.60;74.90
38428;DHT22;24211;49.980;19.776;2023-06-22T12:49:25;43.60;74.60
38428;DHT22;24211;49.980;19.776;2023-06-22T12:51:52;43.50;75.20
38428;DHT22;24211;49.980;19.776;2023-06-22T12:54:48;44.00;74.00
38428;DHT22;24211;49.980;19.776;2023-06-22T12:57:22;44.10;73.50
38428;DHT22;24211;49.980;19.776;2023-06-22T12:59:50;44.00;74.00
38428;DHT22;24211;49.980;19.776;2023-06-22T13:05:37;43.80;74.80
38428;DHT22;24211;49.980;19.776;2023-06-22T13:08:05;43.70;74.60
38428;DHT22;24211;49.980;19.776;2023-06-22T13:10:32;43.70;74.60
38428;DHT22;24211;49.980;19.776;2023-06-22T13:13:00;43.90;74.60
38428;DHT22;24211;49.980;19.776;2023-06-22T13:15:28;43.80;74.50
38428;DHT22;24211;49.980;19.776;2023-06-22T13:17:56;43.70;74.80
38428;DHT22;24211;49.980;19.776;2023-06-22T13:20:24;43.70;74.80
38428;DHT22;24211;49.980;19.776;2023-06-22T13:22:51;43.70;74.80
38428;DHT22;24211;49.980;19.776;2023-06-22T13:25:18;43.60;74.20
38428;DHT22;24211;49.980;19.776;2023-06-22T13:27:47;43.30;74.20
38428;DHT22;24211;49.980;19.776;2023-06-22T13:30:40;43.20;74.60
38428;DHT22;24211;49.980;19.776;2023-06-22T13:33:08;43.40;74.30
38428;DHT22;24211;49.980;19.776;2023-06-22T13:35:37;43.40;74.30
38428;DHT22;24211;49.980;19.776;2023-06-22T13:38:04;43.50;74.30
38428;DHT22;24211;49.980;19.776;2023-06-22T13:40:32;43.50;74.10
38428;DHT22;24211;49.980;19.776;2023-06-22T13:42:59;43.60;74.40
38428;DHT22;24211;49.980;19.776;2023-06-22T13:45:53;43.50;74.40
38428;DHT22;24211;49.980;19.776;2023-06-22T13:48:20;43.60;74.50
38428;DHT22;24211;49.980;19.776;2023-06-22T13:50:47;43.50;73.80
38428;DHT22;24211;49.980;19.776;2023-06-22T13:53:14;43.50;74.20
38428;DHT22;24211;49.980;19.776;2023-06-22T13:55:42;43.80;73.10
38428;DHT22;24211;49.980;19.776;2023-06-22T13:58:09;44.00;73.20
38428;DHT22;24211;49.980;19.776;2023-06-22T14:00:36;44.00;73.90
38428;DHT22;24211;49.980;19.776;2023-06-22T14:03:04;43.80;73.20
38428;DHT22;24211;49.980;19.776;2023-06-22T14:05:31;43.60;73.00
38428;DHT22;24211;49.980;19.776;2023-06-22T14:07:58;43.20;73.00
38428;DHT22;24211;49.980;19.776;2023-06-22T14:10:26;43.40;72.70
38428;DHT22;24211;49.980;19.776;2023-06-22T14:12:53;43.50;72.20
38428;DHT22;24211;49.980;19.776;2023-06-22T14:15:22;43.50;72.80
38428;DHT22;24211;49.980;19.776;2023-06-22T14:17:49;43.30;72.60
38428;DHT22;24211;49.980;19.776;2023-06-22T14:20:16;43.20;72.70
38428;DHT22;24211;49.980;19.776;2023-06-22T14:22:43;43.10;72.70
38428;DHT22;24211;49.980;19.776;2023-06-22T14:25:11;43.10;73.00
38428;DHT22;24211;49.980;19.776;2023-06-22T14:27:38;43.40;72.30
38428;DHT22;24211;49.980;19.776;2023-06-22T14:30:06;43.50;72.80
38428;DHT22;24211;49.980;19.776;2023-06-22T14:32:33;43.40;73.30
38428;DHT22;24211;49.980;19.776;2023-06-22T14:35:01;43.30;72.40
38428;DHT22;24211;49.980;19.776;2023-06-22T14:37:28;43.10;72.90
38428;DHT22;24211;49.980;19.776;2023-06-22T14:39:55;43.00;72.80
38428;DHT22;24211;49.980;19.776;2023-06-22T14:42:22;43.00;73.00
38428;DHT22;24211;49.980;19.776;2023-06-22T14:44:50;43.30;72.20
38428;DHT22;24211;49.980;19.776;2023-06-22T14:47:17;43.60;72.40
38428;DHT22;24211;49.980;19.776;2023-06-22T14:49:45;43.80;72.40
38428;DHT22;24211;49.980;19.776;2023-06-22T14:52:12;43.70;72.50
38428;DHT22;24211;49.980;19.776;2023-06-22T14:54:41;43.70;72.70
38428;DHT22;24211;49.980;19.776;2023-06-22T14:57:08;43.70;72.60
38428;DHT22;24211;49.980;19.776;2023-06-22T14:59:35;43.70;72.50
38428;DHT22;24211;49.980;19.776;2023-06-22T15:02:02;43.70;72.50
38428;DHT22;24211;49.980;19.776;2023-06-22T15:04:30;43.50;72.50
38428;DHT22;24211;49.980;19.776;2023-06-22T15:07:01;43.40;72.50
38428;DHT22;24211;49.980;19.776;2023-06-22T15:09:29;43.30;72.20
38428;DHT22;24211;49.980;19.776;2023-06-22T15:11:56;43.30;72.20
38428;DHT22;24211;49.980;19.776;2023-06-22T15:14:24;43.60;71.70
38428;DHT22;24211;49.980;19.776;2023-06-22T15:16:51;43.60;71.80
38428;DHT22;24211;49.980;19.776;2023-06-22T15:19:19;43.60;71.70
38428;DHT22;24211;49.980;19.776;2023-06-22T15:21:46;43.40;71.80
38428;DHT22;24211;49.980;19.776;2023-06-22T15:24:14;43.50;71.70
38428;DHT22;24211;49.980;19.776;2023-06-22T15:26:41;43.30;71.60
38428;DHT22;24211;49.980;19.776;2023-06-22T15:29:09;43.20;71.70
38428;DHT22;24211;49.980;19.776;2023-06-22T15:31:36;43.00;71.60
38428;DHT22;24211;49.980;19.776;2023-06-22T15:34:03;42.20;69.10
38428;DHT22;24211;49.980;19.776;2023-06-22T15:36:30;41.40;72.30
38428;DHT22;24211;49.980;19.776;2023-06-22T15:38:58;41.30;72.50
38428;DHT22;24211;49.980;19.776;2023-06-22T15:41:27;41.40;72.70
38428;DHT22;24211;49.980;19.776;2023-06-22T15:43:55;41.40;72.70
38428;DHT22;24211;49.980;19.776;2023-06-22T15:46:23;41.30;72.80